sensor_id;sensor_type;location;lat;lon;timestamp;temperature;humidity
26408;DHT22;14583;43.604;1.364;2023-11-19T00:00:07;10.70;99.90
26408;DHT22;14583;43.604;1.364;2023-11-19T00:02:39;10.80;99.90
26408;DHT22;14583;43.604;1.364;2023-11-19T00:05:05;10.90;99.90
26408;DHT22;14583;43.604;1.364;2023-11-19T00:07:35;10.90;99.90
26408;DHT22;14583;43.604;1.364;2023-11-19T00:10:02;10.90;99.90
26408;DHT22;14583;43.604;1.364;2023-11-19T00:12:32;10.60;99.90
26408;DHT22;14583;43.604;1.364;2023-11-19T00:14:58;10.50;99.90
26408;DHT22;14583;43.604;1.364;2023-11-19T00:17:23;10.50;99.90
26408;DHT22;14583;43.604;1.364;2023-11-19T00:19:49;10.60;99.90
26408;DHT22;14583;43.604;1.364;2023-11-19T00:22:17;10.60;99.90
26408;DHT22;14583;43.604;1.364;2023-11-19T00:24:42;10.70;99.90
26408;DHT22;14583;43.604;1.364;2023-11-19T00:27:08;10.80;99.90
26408;DHT22;14583;43.604;1.364;2023-11-19T00:29:34;10.90;99.90
26408;DHT22;14583;43.604;1.364;2023-11-19T00:31:59;10.80;99.90
26408;DHT22;14583;43.604;1.364;2023-11-19T00:34:25;10.80;99.90
26408;DHT22;14583;43.604;1.364;2023-11-19T00:36:51;10.70;99.90
26408;DHT22;14583;43.604;1.364;2023-11-19T00:39:17;10.60;99.90
26408;DHT22;14583;43.604;1.364;2023-11-19T00:41:43;10.60;99.90
26408;DHT22;14583;43.604;1.364;2023-11-19T00:44:09;10.50;99.90
26408;DHT22;14583;43.604;1.364;2023-11-19T00:46:34;10.60;99.90
26408;DHT22;14583;43.604;1.364;2023-11-19T00:49:00;10.50;99.90
26408;DHT22;14583;43.604;1.364;2023-11-19T00:51:26;10.50;99.90
26408;DHT22;14583;43.604;1.364;2023-11-19T00:53:52;10.40;99.90
26408;DHT22;14583;43.604;1.364;2023-11-19T00:56:20;10.40;99.90
26408;DHT22;14583;43.604;1.364;2023-11-19T00:58:46;10.40;99.90
26408;DHT22;14583;43.604;1.364;2023-11-19T01:01:13;10.40;99.90
26408;DHT22;14583;43.604;1.364;2023-11-19T01:03:38;10.50;99.90
26408;DHT22;14583;43.604;1.364;2023-11-19T01:06:04;10.50;99.90
26408;DHT22;14583;43.604;1.364;2023-11-19T01:08:30;10.50;99.90
26408;DHT22;14583;43.604;1.364;2023-11-19T01:10:56;10.60;99.90
26408;DHT22;14583;43.604;1.364;2023-11-19T01:13:22;10.60;99.90
26408;DHT22;14583;43.604;1.364;2023-11-19T01:15:48;10.60;99.90
26408;DHT22;14583;43.604;1.364;2023-11-19T01:18:16;10.50;99.90
26408;DHT22;14583;43.604;1.364;2023-11-19T01:20:42;10.50;99.90
26408;DHT22;14583;43.604;1.364;2023-11-19T01:23:07;10.40;99.90
26408;DHT22;14583;43.604;1.364;2023-11-19T01:25:33;10.40;99.90
26408;DHT22;14583;43.604;1.364;2023-11-19T01:27:59;10.50;99.90
26408;DHT22;14583;43.604;1.364;2023-11-19T01:30:25;10.50;99.90
26408;DHT22;14583;43.604;1.364;2023-11-19T01:32:51;10.50;99.90
26408;DHT22;14583;43.604;1.364;2023-11-19T01:35:17;10.40;99.90
26408;DHT22;14583;43.604;1.364;2023-11-19T01:37:42;10.40;99.90
26408;DHT22;14583;43.604;1.364;2023-11-19T01:40:08;10.40;99.90
26408;DHT22;14583;43.604;1.364;2023-11-19T01:42:37;10.30;99.90
26408;DHT22;14583;43.604;1.364;2023-11-19T01:45:07;10.20;99.90
26408;DHT22;14583;43.604;1.364;2023-11-19T01:47:34;10.10;99.90
26408;DHT22;14583;43.604;1.364;2023-11-19T01:50:01;10.20;99.90
26408;DHT22;14583;43.604;1.364;2023-11-19T01:52:32;10.10;99.90
26408;DHT22;14583;43.604;1.364;2023-11-19T01:54:59;10.10;99.90
26408;DHT22;14583;43.604;1.364;2023-11-19T01:57:25;10.10;99.90
26408;DHT22;14583;43.604;1.364;2023-11-19T01:59:52;10.10;99.90
26408;DHT22;14583;43.604;1.364;2023-11-19T02:02:19;10.20;99.90
26408;DHT22;14583;43.604;1.364;2023-11-19T02:04:49;10.30;99.90
26408;DHT22;14583;43.604;1.364;2023-11-19T02:07:16;10.30;99.90
26408;DHT22;14583;43.604;1.364;2023-11-19T02:09:43;10.30;99.90
26408;DHT22;14583;43.604;1.364;2023-11-19T02:12:10;10.30;99.90
26408;DHT22;14583;43.604;1.364;2023-11-19T02:14:37;10.20;99.90
26408;DHT22;14583;43.604;1.364;2023-11-19T02:17:03;10.10;99.90
26408;DHT22;14583;43.604;1.364;2023-11-19T02:19:29;10.00;99.90
26408;DHT22;14583;43.604;1.364;2023-11-19T02:21:55;9.90;99.90
26408;DHT22;14583;43.604;1.364;2023-11-19T02:24:22;9.90;99.90
26408;DHT22;14583;43.604;1.364;2023-11-19T02:26:52;10.00;99.90
26408;DHT22;14583;43.604;1.364;2023-11-19T02:29:21;9.90;99.90
26408;DHT22;14583;43.604;1.364;2023-11-19T02:31:47;9.70;99.90
26408;DHT22;14583;43.604;1.364;2023-11-19T02:34:13;9.70;99.90
26408;DHT22;14583;43.604;1.364;2023-11-19T02:36:39;9.70;99.90
26408;DHT22;14583;43.604;1.364;2023-11-19T02:39:08;9.60;99.90
26408;DHT22;14583;43.604;1.364;2023-11-19T02:41:37;9.60;99.90
26408;DHT22;14583;43.604;1.364;2023-11-19T02:44:05;9.60;99.90
26408;DHT22;14583;43.604;1.364;2023-11-19T02:46:31;9.70;99.90
26408;DHT22;14583;43.604;1.364;2023-11-19T02:48:57;9.50;99.90
26408;DHT22;14583;43.604;1.364;2023-11-19T02:51:23;9.60;99.90
26408;DHT22;14583;43.604;1.364;2023-11-19T02:53:49;9.80;99.90
26408;DHT22;14583;43.604;1.364;2023-11-19T02:56:14;9.90;99.90
26408;DHT22;14583;43.604;1.364;2023-11-19T02:58:51;9.80;99.90
26408;DHT22;14583;43.604;1.364;2023-11-19T03:01:24;9.70;99.90
26408;DHT22;14583;43.604;1.364;2023-11-19T03:03:59;9.60;99.90
26408;DHT22;14583;43.604;1.364;2023-11-19T03:06:26;9.50;99.90
26408;DHT22;14583;43.604;1.364;2023-11-19T03:08:53;9.50;99.90
26408;DHT22;14583;43.604;1.364;2023-11-19T03:11:19;9.60;99.90
26408;DHT22;14583;43.604;1.364;2023-11-19T03:13:45;9.70;99.90
26408;DHT22;14583;43.604;1.364;2023-11-19T03:16:15;9.60;99.90
26408;DHT22;14583;43.604;1.364;2023-11-19T03:18:42;9.50;99.90
26408;DHT22;14583;43.604;1.364;2023-11-19T03:21:08;9.50;99.90
26408;DHT22;14583;43.604;1.364;2023-11-19T03:23:34;9.40;99.90
26408;DHT22;14583;43.604;1.364;2023-11-19T03:26:00;9.20;99.90
26408;DHT22;14583;43.604;1.364;2023-11-19T03:28:29;9.10;99.90
26408;DHT22;14583;43.604;1.364;2023-11-19T03:30:54;9.10;99.90
26408;DHT22;14583;43.604;1.364;2023-11-19T03:33:20;9.10;99.90
26408;DHT22;14583;43.604;1.364;2023-11-19T03:35:46;9.10;99.90
26408;DHT22;14583;43.604;1.364;2023-11-19T03:38:12;9.10;99.90
26408;DHT22;14583;43.604;1.364;2023-11-19T03:40:38;9.00;99.90
26408;DHT22;14583;43.604;1.364;2023-11-19T03:43:04;9.00;99.90
26408;DHT22;14583;43.604;1.364;2023-11-19T03:45:30;9.00;99.90
26408;DHT22;14583;43.604;1.364;2023-11-19T03:47:56;9.20;99.90
26408;DHT22;14583;43.604;1.364;2023-11-19T03:50:22;9.30;99.90
26408;DHT22;14583;43.604;1.364;2023-11-19T03:52:49;9.30;99.90
26408;DHT22;14583;43.604;1.364;2023-11-19T03:55:17;9.30;99.90
26408;DHT22;14583;43.604;1.364;2023-11-19T03:57:43;9.40;99.90
26408;DHT22;14583;43.604;1.364;2023-11-19T04:00:09;9.30;99.90
26408;DHT22;14583;43.604;1.364;2023-11-19T04:02:36;9.20;99.90
26408;DHT22;14583;43.604;1.364;2023-11-19T04:05:02;9.40;99.90
26408;DHT22;14583;43.604;1.364;2023-11-19T04:07:30;9.40;99.90
26408;DHT22;14583;43.604;1.364;2023-11-19T04:09:57;9.40;99.90
26408;DHT22;14583;43.604;1.364;2023-11-19T04:12:22;9.50;99.90
26408;DHT22;14583;43.604;1.364;2023-11-19T04:14:48;9.60;99.90
26408;DHT22;14583;43.604;1.364;2023-11-19T04:17:14;9.40;99.90
26408;DHT22;14583;43.604;1.364;2023-11-19T04:19:39;9.40;99.90
26408;DHT22;14583;43.604;1.364;2023-11-19T04:22:09;9.50;99.90
26408;DHT22;14583;43.604;1.364;2023-11-19T04:24:36;9.70;99.90
26408;DHT22;14583;43.604;1.364;2023-11-19T04:27:02;9.60;99.90
26408;DHT22;14583;43.604;1.364;2023-11-19T04:29:30;9.60;99.90
26408;DHT22;14583;43.604;1.364;2023-11-19T04:31:56;9.50;99.90
26408;DHT22;14583;43.604;1.364;2023-11-19T04:34:21;9.40;99.90
26408;DHT22;14583;43.604;1.364;2023-11-19T04:36:47;9.60;99.90
26408;DHT22;14583;43.604;1.364;2023-11-19T04:39:13;9.50;99.90
26408;DHT22;14583;43.604;1.364;2023-11-19T04:41:50;9.50;99.90
26408;DHT22;14583;43.604;1.364;2023-11-19T04:44:19;9.40;99.90
26408;DHT22;14583;43.604;1.364;2023-11-19T04:46:46;9.40;99.90
26408;DHT22;14583;43.604;1.364;2023-11-19T04:49:12;9.30;99.90
26408;DHT22;14583;43.604;1.364;2023-11-19T04:51:42;9.30;99.90
26408;DHT22;14583;43.604;1.364;2023-11-19T04:54:09;9.40;99.90
26408;DHT22;14583;43.604;1.364;2023-11-19T04:56:38;9.40;99.90
26408;DHT22;14583;43.604;1.364;2023-11-19T04:59:04;9.30;99.90
26408;DHT22;14583;43.604;1.364;2023-11-19T05:01:31;9.30;99.90
26408;DHT22;14583;43.604;1.364;2023-11-19T05:03:57;9.40;99.90
26408;DHT22;14583;43.604;1.364;2023-11-19T05:06:26;9.40;99.90
26408;DHT22;14583;43.604;1.364;2023-11-19T05:08:53;9.50;99.90
26408;DHT22;14583;43.604;1.364;2023-11-19T05:11:19;9.50;99.90
26408;DHT22;14583;43.604;1.364;2023-11-19T05:13:45;9.50;99.90
26408;DHT22;14583;43.604;1.364;2023-11-19T05:16:11;9.50;99.90
26408;DHT22;14583;43.604;1.364;2023-11-19T05:18:42;9.40;99.90
26408;DHT22;14583;43.604;1.364;2023-11-19T05:21:07;9.40;99.90
26408;DHT22;14583;43.604;1.364;2023-11-19T05:23:33;9.40;99.90
26408;DHT22;14583;43.604;1.364;2023-11-19T05:26:00;9.30;99.90
26408;DHT22;14583;43.604;1.364;2023-11-19T05:28:26;9.30;99.90
26408;DHT22;14583;43.604;1.364;2023-11-19T05:30:52;9.30;99.90
26408;DHT22;14583;43.604;1.364;2023-11-19T05:33:17;9.30;99.90
26408;DHT22;14583;43.604;1.364;2023-11-19T05:35:43;9.20;99.90
26408;DHT22;14583;43.604;1.364;2023-11-19T05:38:09;9.00;99.90
26408;DHT22;14583;43.604;1.364;2023-11-19T05:40:35;9.00;99.90
26408;DHT22;14583;43.604;1.364;2023-11-19T05:43:01;9.10;99.90
26408;DHT22;14583;43.604;1.364;2023-11-19T05:45:27;9.10;99.90
26408;DHT22;14583;43.604;1.364;2023-11-19T05:47:52;9.10;99.90
26408;DHT22;14583;43.604;1.364;2023-11-19T05:50:18;9.30;99.90
26408;DHT22;14583;43.604;1.364;2023-11-19T05:52:44;9.30;99.90
26408;DHT22;14583;43.604;1.364;2023-11-19T05:55:10;9.30;99.90
26408;DHT22;14583;43.604;1.364;2023-11-19T05:57:39;9.20;99.90
26408;DHT22;14583;43.604;1.364;2023-11-19T06:00:08;9.00;99.90
26408;DHT22;14583;43.604;1.364;2023-11-19T06:02:36;8.90;99.90
26408;DHT22;14583;43.604;1.364;2023-11-19T06:05:04;8.90;99.90
26408;DHT22;14583;43.604;1.364;2023-11-19T06:07:32;8.90;99.90
26408;DHT22;14583;43.604;1.364;2023-11-19T06:09:57;8.80;99.90
26408;DHT22;14583;43.604;1.364;2023-11-19T06:12:23;8.70;99.90
26408;DHT22;14583;43.604;1.364;2023-11-19T06:14:49;8.60;99.90
26408;DHT22;14583;43.604;1.364;2023-11-19T06:17:14;8.60;99.90
26408;DHT22;14583;43.604;1.364;2023-11-19T06:19:40;8.60;99.90
26408;DHT22;14583;43.604;1.364;2023-11-19T06:22:06;8.50;99.90
26408;DHT22;14583;43.604;1.364;2023-11-19T06:24:32;8.50;99.90
26408;DHT22;14583;43.604;1.364;2023-11-19T06:26:57;8.50;99.90
26408;DHT22;14583;43.604;1.364;2023-11-19T06:29:23;8.50;99.90
26408;DHT22;14583;43.604;1.364;2023-11-19T06:31:50;8.50;99.90
26408;DHT22;14583;43.604;1.364;2023-11-19T06:34:16;8.50;99.90
26408;DHT22;14583;43.604;1.364;2023-11-19T06:36:42;8.50;99.90
26408;DHT22;14583;43.604;1.364;2023-11-19T06:39:09;8.60;99.90
26408;DHT22;14583;43.604;1.364;2023-11-19T06:41:36;8.60;99.90
26408;DHT22;14583;43.604;1.364;2023-11-19T06:44:04;8.60;99.90
26408;DHT22;14583;43.604;1.364;2023-11-19T06:46:30;8.60;99.90
26408;DHT22;14583;43.604;1.364;2023-11-19T06:48:56;8.60;99.90
26408;DHT22;14583;43.604;1.364;2023-11-19T06:51:22;8.60;99.90
26408;DHT22;14583;43.604;1.364;2023-11-19T06:53:49;8.60;99.90
26408;DHT22;14583;43.604;1.364;2023-11-19T06:56:22;8.50;99.90
26408;DHT22;14583;43.604;1.364;2023-11-19T06:58:48;8.60;99.90
26408;DHT22;14583;43.604;1.364;2023-11-19T07:01:17;8.50;99.90
26408;DHT22;14583;43.604;1.364;2023-11-19T07:03:46;8.60;99.90
26408;DHT22;14583;43.604;1.364;2023-11-19T07:06:13;8.70;99.90
26408;DHT22;14583;43.604;1.364;2023-11-19T07:08:42;8.70;99.90
26408;DHT22;14583;43.604;1.364;2023-11-19T07:11:12;8.70;99.90
26408;DHT22;14583;43.604;1.364;2023-11-19T07:13:39;8.60;99.90
26408;DHT22;14583;43.604;1.364;2023-11-19T07:16:07;8.60;99.90
26408;DHT22;14583;43.604;1.364;2023-11-19T07:18:35;8.60;99.90
26408;DHT22;14583;43.604;1.364;2023-11-19T07:21:01;8.60;99.90
26408;DHT22;14583;43.604;1.364;2023-11-19T07:23:28;8.60;99.90
26408;DHT22;14583;43.604;1.364;2023-11-19T07:25:54;8.70;99.90
26408;DHT22;14583;43.604;1.364;2023-11-19T07:28:20;8.80;99.90
26408;DHT22;14583;43.604;1.364;2023-11-19T07:30:45;8.80;99.90
26408;DHT22;14583;43.604;1.364;2023-11-19T07:33:11;8.90;99.90
26408;DHT22;14583;43.604;1.364;2023-11-19T07:35:39;8.80;99.90
26408;DHT22;14583;43.604;1.364;2023-11-19T07:38:06;8.80;99.90
26408;DHT22;14583;43.604;1.364;2023-11-19T07:40:32;8.80;99.90
26408;DHT22;14583;43.604;1.364;2023-11-19T07:42:58;8.80;99.90
26408;DHT22;14583;43.604;1.364;2023-11-19T07:45:23;8.80;99.90
26408;DHT22;14583;43.604;1.364;2023-11-19T07:47:49;8.80;99.90
26408;DHT22;14583;43.604;1.364;2023-11-19T07:50:16;8.80;99.90
26408;DHT22;14583;43.604;1.364;2023-11-19T07:52:44;8.90;99.90
26408;DHT22;14583;43.604;1.364;2023-11-19T07:55:10;8.90;99.90
26408;DHT22;14583;43.604;1.364;2023-11-19T07:57:36;9.00;99.90
26408;DHT22;14583;43.604;1.364;2023-11-19T08:00:02;9.10;99.90
26408;DHT22;14583;43.604;1.364;2023-11-19T08:02:28;9.20;99.90
26408;DHT22;14583;43.604;1.364;2023-11-19T08:04:54;9.20;99.90
26408;DHT22;14583;43.604;1.364;2023-11-19T08:07:21;9.20;99.90
26408;DHT22;14583;43.604;1.364;2023-11-19T08:09:47;9.30;99.90
26408;DHT22;14583;43.604;1.364;2023-11-19T08:12:13;9.30;99.90
26408;DHT22;14583;43.604;1.364;2023-11-19T08:14:43;9.40;99.90
26408;DHT22;14583;43.604;1.364;2023-11-19T08:17:09;9.40;99.90
26408;DHT22;14583;43.604;1.364;2023-11-19T08:19:35;9.50;99.90
26408;DHT22;14583;43.604;1.364;2023-11-19T08:22:01;9.50;99.90
26408;DHT22;14583;43.604;1.364;2023-11-19T08:24:27;9.60;99.90
26408;DHT22;14583;43.604;1.364;2023-11-19T08:26:56;9.70;99.90
26408;DHT22;14583;43.604;1.364;2023-11-19T08:29:22;9.80;99.90
26408;DHT22;14583;43.604;1.364;2023-11-19T08:31:48;9.80;99.90
26408;DHT22;14583;43.604;1.364;2023-11-19T08:34:14;9.90;99.90
26408;DHT22;14583;43.604;1.364;2023-11-19T08:36:41;9.90;99.90
26408;DHT22;14583;43.604;1.364;2023-11-19T08:39:06;9.90;99.90
26408;DHT22;14583;43.604;1.364;2023-11-19T08:41:34;9.90;99.90
26408;DHT22;14583;43.604;1.364;2023-11-19T08:44:00;10.00;99.90
26408;DHT22;14583;43.604;1.364;2023-11-19T08:46:26;10.10;99.90
26408;DHT22;14583;43.604;1.364;2023-11-19T08:48:51;10.10;99.90
26408;DHT22;14583;43.604;1.364;2023-11-19T08:51:17;10.20;99.90
26408;DHT22;14583;43.604;1.364;2023-11-19T08:53:43;10.30;99.90
26408;DHT22;14583;43.604;1.364;2023-11-19T08:56:08;10.40;99.90
26408;DHT22;14583;43.604;1.364;2023-11-19T08:58:34;10.40;99.90
26408;DHT22;14583;43.604;1.364;2023-11-19T09:01:00;10.60;99.90
26408;DHT22;14583;43.604;1.364;2023-11-19T09:03:26;10.60;99.90
26408;DHT22;14583;43.604;1.364;2023-11-19T09:05:52;10.70;99.90
26408;DHT22;14583;43.604;1.364;2023-11-19T09:08:21;10.80;99.90
26408;DHT22;14583;43.604;1.364;2023-11-19T09:10:48;10.80;99.90
26408;DHT22;14583;43.604;1.364;2023-11-19T09:13:13;10.90;99.90
26408;DHT22;14583;43.604;1.364;2023-11-19T09:15:39;11.00;99.90
26408;DHT22;14583;43.604;1.364;2023-11-19T09:18:05;11.00;99.90
26408;DHT22;14583;43.604;1.364;2023-11-19T09:20:30;11.00;99.90
26408;DHT22;14583;43.604;1.364;2023-11-19T09:23:03;11.00;99.90
26408;DHT22;14583;43.604;1.364;2023-11-19T09:25:28;11.00;99.90
26408;DHT22;14583;43.604;1.364;2023-11-19T09:27:54;11.10;99.90
26408;DHT22;14583;43.604;1.364;2023-11-19T09:30:20;11.10;99.90
26408;DHT22;14583;43.604;1.364;2023-11-19T09:32:46;11.10;99.90
26408;DHT22;14583;43.604;1.364;2023-11-19T09:35:11;11.20;99.90
26408;DHT22;14583;43.604;1.364;2023-11-19T09:37:40;11.20;99.90
26408;DHT22;14583;43.604;1.364;2023-11-19T09:40:06;11.30;99.90
26408;DHT22;14583;43.604;1.364;2023-11-19T09:42:44;11.40;99.90
26408;DHT22;14583;43.604;1.364;2023-11-19T09:45:14;11.40;99.90
26408;DHT22;14583;43.604;1.364;2023-11-19T09:47:43;11.50;99.90
26408;DHT22;14583;43.604;1.364;2023-11-19T09:50:17;11.50;99.90
26408;DHT22;14583;43.604;1.364;2023-11-19T09:52:47;11.50;99.90
26408;DHT22;14583;43.604;1.364;2023-11-19T09:55:13;11.50;99.90
26408;DHT22;14583;43.604;1.364;2023-11-19T09:57:40;11.60;99.90
26408;DHT22;14583;43.604;1.364;2023-11-19T10:00:10;11.60;99.90
26408;DHT22;14583;43.604;1.364;2023-11-19T10:02:37;11.70;99.90
26408;DHT22;14583;43.604;1.364;2023-11-19T10:05:06;11.70;99.90
26408;DHT22;14583;43.604;1.364;2023-11-19T10:07:35;11.80;99.90
26408;DHT22;14583;43.604;1.364;2023-11-19T10:10:02;11.90;99.90
26408;DHT22;14583;43.604;1.364;2023-11-19T10:12:31;11.90;99.90
26408;DHT22;14583;43.604;1.364;2023-11-19T10:14:58;12.00;99.90
26408;DHT22;14583;43.604;1.364;2023-11-19T10:17:33;12.10;99.90
26408;DHT22;14583;43.604;1.364;2023-11-19T10:19:59;12.10;99.90
26408;DHT22;14583;43.604;1.364;2023-11-19T10:22:25;12.20;99.90
26408;DHT22;14583;43.604;1.364;2023-11-19T10:24:52;12.30;99.90
26408;DHT22;14583;43.604;1.364;2023-11-19T10:27:18;12.30;99.90
26408;DHT22;14583;43.604;1.364;2023-11-19T10:29:47;12.40;99.90
26408;DHT22;14583;43.604;1.364;2023-11-19T10:32:13;12.50;99.90
26408;DHT22;14583;43.604;1.364;2023-11-19T10:34:40;12.60;99.90
26408;DHT22;14583;43.604;1.364;2023-11-19T10:37:07;12.60;99.90
26408;DHT22;14583;43.604;1.364;2023-11-19T10:39:52;12.70;99.90
26408;DHT22;14583;43.604;1.364;2023-11-19T10:42:21;12.70;99.90
26408;DHT22;14583;43.604;1.364;2023-11-19T10:44:47;12.70;99.90
26408;DHT22;14583;43.604;1.364;2023-11-19T10:47:18;12.80;99.90
26408;DHT22;14583;43.604;1.364;2023-11-19T10:49:45;13.00;99.90
26408;DHT22;14583;43.604;1.364;2023-11-19T10:52:18;13.00;99.90
26408;DHT22;14583;43.604;1.364;2023-11-19T10:54:50;13.00;99.90
26408;DHT22;14583;43.604;1.364;2023-11-19T10:57:20;13.00;99.90
26408;DHT22;14583;43.604;1.364;2023-11-19T10:59:47;13.10;99.90
26408;DHT22;14583;43.604;1.364;2023-11-19T11:02:19;13.10;99.90
26408;DHT22;14583;43.604;1.364;2023-11-19T11:04:47;13.20;99.90
26408;DHT22;14583;43.604;1.364;2023-11-19T11:07:15;13.30;99.90
26408;DHT22;14583;43.604;1.364;2023-11-19T11:09:43;13.40;99.90
26408;DHT22;14583;43.604;1.364;2023-11-19T11:12:12;13.50;99.90
26408;DHT22;14583;43.604;1.364;2023-11-19T11:14:38;13.50;99.90
26408;DHT22;14583;43.604;1.364;2023-11-19T11:17:13;13.60;99.90
26408;DHT22;14583;43.604;1.364;2023-11-19T11:19:42;13.60;99.90
26408;DHT22;14583;43.604;1.364;2023-11-19T11:22:09;13.60;99.90
26408;DHT22;14583;43.604;1.364;2023-11-19T11:32:54;14.00;99.90
26408;DHT22;14583;43.604;1.364;2023-11-19T11:35:30;14.00;99.90
26408;DHT22;14583;43.604;1.364;2023-11-19T11:38:06;14.00;99.90
26408;DHT22;14583;43.604;1.364;2023-11-19T11:40:32;14.10;99.90
26408;DHT22;14583;43.604;1.364;2023-11-19T11:43:00;14.10;99.90
26408;DHT22;14583;43.604;1.364;2023-11-19T11:45:39;14.20;99.90
26408;DHT22;14583;43.604;1.364;2023-11-19T11:48:09;14.30;99.90
26408;DHT22;14583;43.604;1.364;2023-11-19T11:50:36;14.40;99.90
26408;DHT22;14583;43.604;1.364;2023-11-19T11:53:14;14.40;99.90
26408;DHT22;14583;43.604;1.364;2023-11-19T11:55:53;14.50;99.90
26408;DHT22;14583;43.604;1.364;2023-11-19T11:58:25;14.60;99.90
26408;DHT22;14583;43.604;1.364;2023-11-19T12:00:51;14.60;99.90
26408;DHT22;14583;43.604;1.364;2023-11-19T12:03:21;14.60;99.90
26408;DHT22;14583;43.604;1.364;2023-11-19T12:05:48;14.70;99.90
26408;DHT22;14583;43.604;1.364;2023-11-19T12:08:15;14.70;99.90
26408;DHT22;14583;43.604;1.364;2023-11-19T12:10:48;14.60;99.90
26408;DHT22;14583;43.604;1.364;2023-11-19T12:13:18;14.60;99.90
26408;DHT22;14583;43.604;1.364;2023-11-19T12:18:32;14.50;99.90
26408;DHT22;14583;43.604;1.364;2023-11-19T12:21:00;14.50;99.90
26408;DHT22;14583;43.604;1.364;2023-11-19T12:23:30;14.60;99.90
26408;DHT22;14583;43.604;1.364;2023-11-19T12:25:56;14.80;99.90
26408;DHT22;14583;43.604;1.364;2023-11-19T12:28:22;14.90;99.90
26408;DHT22;14583;43.604;1.364;2023-11-19T12:30:50;15.00;99.90
26408;DHT22;14583;43.604;1.364;2023-11-19T12:33:16;14.90;99.90
26408;DHT22;14583;43.604;1.364;2023-11-19T12:35:44;15.00;99.90
26408;DHT22;14583;43.604;1.364;2023-11-19T12:38:25;15.00;99.90
26408;DHT22;14583;43.604;1.364;2023-11-19T12:43:30;15.00;99.90
26408;DHT22;14583;43.604;1.364;2023-11-19T12:45:56;15.00;99.90
26408;DHT22;14583;43.604;1.364;2023-11-19T12:48:21;15.10;99.90
26408;DHT22;14583;43.604;1.364;2023-11-19T12:51:05;15.10;99.90
26408;DHT22;14583;43.604;1.364;2023-11-19T12:53:49;15.10;99.90
26408;DHT22;14583;43.604;1.364;2023-11-19T12:56:16;15.00;99.90
26408;DHT22;14583;43.604;1.364;2023-11-19T12:58:42;15.00;99.90
26408;DHT22;14583;43.604;1.364;2023-11-19T13:01:09;15.10;99.90
26408;DHT22;14583;43.604;1.364;2023-11-19T13:03:38;15.30;99.90
26408;DHT22;14583;43.604;1.364;2023-11-19T13:06:12;15.40;99.90
26408;DHT22;14583;43.604;1.364;2023-11-19T13:08:51;15.40;99.90
26408;DHT22;14583;43.604;1.364;2023-11-19T13:11:39;15.40;99.90
26408;DHT22;14583;43.604;1.364;2023-11-19T13:14:06;15.60;99.90
26408;DHT22;14583;43.604;1.364;2023-11-19T13:16:37;15.60;99.90
26408;DHT22;14583;43.604;1.364;2023-11-19T13:19:03;15.60;99.90
26408;DHT22;14583;43.604;1.364;2023-11-19T13:21:29;15.80;99.90
26408;DHT22;14583;43.604;1.364;2023-11-19T13:23:55;15.80;99.90
26408;DHT22;14583;43.604;1.364;2023-11-19T13:26:21;15.80;99.90
26408;DHT22;14583;43.604;1.364;2023-11-19T13:28:47;16.00;99.90
26408;DHT22;14583;43.604;1.364;2023-11-19T13:31:13;16.00;99.90
26408;DHT22;14583;43.604;1.364;2023-11-19T13:33:39;16.00;99.90
26408;DHT22;14583;43.604;1.364;2023-11-19T13:36:09;16.00;99.90
26408;DHT22;14583;43.604;1.364;2023-11-19T13:38:35;16.20;99.90
26408;DHT22;14583;43.604;1.364;2023-11-19T13:41:05;16.20;99.90
26408;DHT22;14583;43.604;1.364;2023-11-19T13:43:32;16.10;99.90
26408;DHT22;14583;43.604;1.364;2023-11-19T13:45:58;16.30;99.90
26408;DHT22;14583;43.604;1.364;2023-11-19T13:48:24;16.30;99.90
26408;DHT22;14583;43.604;1.364;2023-11-19T13:50:52;16.50;99.90
26408;DHT22;14583;43.604;1.364;2023-11-19T13:53:17;16.50;99.90
26408;DHT22;14583;43.604;1.364;2023-11-19T13:55:43;16.50;99.90
26408;DHT22;14583;43.604;1.364;2023-11-19T13:58:10;16.60;99.90
26408;DHT22;14583;43.604;1.364;2023-11-19T14:00:36;16.70;99.90
26408;DHT22;14583;43.604;1.364;2023-11-19T14:03:02;16.80;99.90
26408;DHT22;14583;43.604;1.364;2023-11-19T14:05:28;16.90;99.90
26408;DHT22;14583;43.604;1.364;2023-11-19T14:07:54;17.00;99.90
26408;DHT22;14583;43.604;1.364;2023-11-19T14:10:25;17.10;99.90
26408;DHT22;14583;43.604;1.364;2023-11-19T14:12:56;17.20;99.90
26408;DHT22;14583;43.604;1.364;2023-11-19T14:15:22;17.30;99.90
26408;DHT22;14583;43.604;1.364;2023-11-19T14:17:47;17.70;99.90
26408;DHT22;14583;43.604;1.364;2023-11-19T14:20:13;18.30;99.90
26408;DHT22;14583;43.604;1.364;2023-11-19T14:22:43;18.80;99.90
26408;DHT22;14583;43.604;1.364;2023-11-19T14:25:10;19.50;99.90
26408;DHT22;14583;43.604;1.364;2023-11-19T14:27:39;20.10;99.90
26408;DHT22;14583;43.604;1.364;2023-11-19T14:30:06;21.10;99.90
26408;DHT22;14583;43.604;1.364;2023-11-19T14:32:50;23.60;99.90
26408;DHT22;14583;43.604;1.364;2023-11-19T14:35:16;27.30;99.90
26408;DHT22;14583;43.604;1.364;2023-11-19T14:37:42;29.90;99.90
26408;DHT22;14583;43.604;1.364;2023-11-19T14:40:07;31.50;99.90
26408;DHT22;14583;43.604;1.364;2023-11-19T14:42:37;32.50;96.10
26408;DHT22;14583;43.604;1.364;2023-11-19T14:45:03;33.10;93.50
26408;DHT22;14583;43.604;1.364;2023-11-19T14:47:28;32.20;91.30
26408;DHT22;14583;43.604;1.364;2023-11-19T14:49:54;28.60;93.50
26408;DHT22;14583;43.604;1.364;2023-11-19T14:52:20;25.60;96.40
26408;DHT22;14583;43.604;1.364;2023-11-19T14:54:46;24.20;99.30
26408;DHT22;14583;43.604;1.364;2023-11-19T14:57:12;24.60;99.50
26408;DHT22;14583;43.604;1.364;2023-11-19T14:59:38;26.00;98.60
26408;DHT22;14583;43.604;1.364;2023-11-19T15:02:04;25.70;98.80
26408;DHT22;14583;43.604;1.364;2023-11-19T15:04:31;25.60;98.60
26408;DHT22;14583;43.604;1.364;2023-11-19T15:06:57;26.00;98.10
26408;DHT22;14583;43.604;1.364;2023-11-19T15:09:23;24.10;99.40
26408;DHT22;14583;43.604;1.364;2023-11-19T15:11:50;22.70;99.90
26408;DHT22;14583;43.604;1.364;2023-11-19T15:14:15;22.00;99.90
26408;DHT22;14583;43.604;1.364;2023-11-19T15:16:47;21.50;99.90
26408;DHT22;14583;43.604;1.364;2023-11-19T15:19:13;21.10;99.90
26408;DHT22;14583;43.604;1.364;2023-11-19T15:21:40;21.00;99.90
26408;DHT22;14583;43.604;1.364;2023-11-19T15:24:06;20.90;99.90
26408;DHT22;14583;43.604;1.364;2023-11-19T15:26:36;20.60;99.90
26408;DHT22;14583;43.604;1.364;2023-11-19T15:29:05;20.30;99.90
26408;DHT22;14583;43.604;1.364;2023-11-19T15:31:31;20.00;99.90
26408;DHT22;14583;43.604;1.364;2023-11-19T15:33:57;19.80;99.90
26408;DHT22;14583;43.604;1.364;2023-11-19T15:36:23;19.50;99.90
26408;DHT22;14583;43.604;1.364;2023-11-19T15:38:49;19.20;99.90
26408;DHT22;14583;43.604;1.364;2023-11-19T15:41:14;18.80;99.90
26408;DHT22;14583;43.604;1.364;2023-11-19T15:43:40;18.60;99.90
26408;DHT22;14583;43.604;1.364;2023-11-19T15:46:07;18.40;99.90
26408;DHT22;14583;43.604;1.364;2023-11-19T15:48:33;18.20;99.90
26408;DHT22;14583;43.604;1.364;2023-11-19T15:50:58;18.00;99.90